Time;durP1;ratioP1;P1;durP2;ratioP2;P2;SDS_P1;SDS_P2;PMS_P1;PMS_P2;Temp;Humidity;BMP_temperature;BMP_pressure;BME280_temperature;BME280_humidity;BME280_pressure;Samples;Min_cycle;Max_cycle;Signal;HPM_P1;HPM_P2
2022/01/30 00:00:26;;;;;;;0.20;0.20;;;;;;;19.96;41.76;102172.19;5166772;27;20038;-26
2022/01/30 00:02:51;;;;;;;0.20;0.20;;;;;;;19.95;41.78;102189.88;5149744;27;20468;-26
2022/01/30 00:05:18;;;;;;;0.20;0.20;;;;;;;19.96;41.73;102182.44;5167829;27;20045;-26
2022/01/30 00:07:44;;;;;;;0.22;0.22;;;;;;;19.97;41.71;102186.84;5149370;27;20051;-27
2022/01/30 00:10:15;;;;;;;0.20;0.20;;;;;;;19.96;41.84;102186.03;5164539;27;20054;-26
2022/01/30 00:12:48;;;;;;;0.20;0.20;;;;;;;19.96;41.59;102185.19;5167910;27;20366;-26
2022/01/30 00:15:15;;;;;;;0.30;0.30;;;;;;;19.96;41.51;102186.03;5148787;27;20087;-26
2022/01/30 00:17:48;;;;;;;0.20;0.20;;;;;;;19.96;41.87;102185.19;5167695;27;20039;-26
2022/01/30 00:20:20;;;;;;;0.30;0.30;;;;;;;19.96;41.54;102190.72;5144136;27;20425;-27
2022/01/30 00:22:52;;;;;;;0.20;0.20;;;;;;;19.96;42.00;102199.00;5142734;27;20081;-27
2022/01/30 00:25:28;;;;;;;0.20;0.20;;;;;;;19.96;41.66;102196.25;5120503;27;20083;-27
2022/01/30 00:28:02;;;;;;;0.30;0.30;;;;;;;19.96;41.86;102193.47;5145617;27;20417;-27
2022/01/30 00:30:33;;;;;;;0.20;0.20;;;;;;;19.97;41.67;102192.38;5145093;27;20474;-27
2022/01/30 00:33:00;;;;;;;0.20;0.20;;;;;;;19.96;41.71;102188.78;5121790;27;20043;-27
2022/01/30 00:35:33;;;;;;;0.20;0.20;;;;;;;19.97;41.88;102195.16;5128953;27;20462;-26
2022/01/30 00:38:00;;;;;;;0.20;0.20;;;;;;;19.96;41.86;102194.31;5146055;27;20082;-26
2022/01/30 00:40:33;;;;;;;0.20;0.20;;;;;;;19.96;41.62;102205.38;5126932;27;20047;-26
2022/01/30 00:42:59;;;;;;;0.20;0.20;;;;;;;19.97;41.46;102192.38;5125639;27;20227;-26
2022/01/30 00:45:25;;;;;;;0.20;0.20;;;;;;;19.98;41.84;102205.09;5127535;27;20042;-26
2022/01/30 00:47:51;;;;;;;0.20;0.20;;;;;;;19.96;41.77;102207.31;5136066;27;20184;-26
2022/01/30 00:50:17;;;;;;;0.20;0.20;;;;;;;19.97;41.59;102223.63;5130549;28;20046;-26
2022/01/30 00:52:43;;;;;;;0.20;0.20;;;;;;;19.97;41.92;102225.56;5127028;28;20805;-26
2022/01/30 00:55:09;;;;;;;0.20;0.20;;;;;;;19.97;41.83;102220.03;5126851;28;20049;-27
2022/01/30 00:57:34;;;;;;;0.20;0.20;;;;;;;19.98;41.84;102221.69;5127635;28;20050;-26
2022/01/30 01:00:00;;;;;;;0.20;0.20;;;;;;;19.97;41.75;102220.03;5128403;28;20049;-26
2022/01/30 01:02:26;;;;;;;0.20;0.20;;;;;;;19.98;41.88;102225.31;5131776;28;20070;-26
2022/01/30 01:04:52;;;;;;;0.20;0.20;;;;;;;19.98;41.66;102227.22;5130806;28;20035;-27
2022/01/30 01:07:20;;;;;;;0.20;0.20;;;;;;;19.98;41.70;102239.13;5132068;28;20035;-26
2022/01/30 01:09:57;;;;;;;0.30;0.30;;;;;;;19.96;41.67;102224.72;5131688;28;20054;-26
2022/01/30 01:23:28;;;;;;;0.20;0.20;;;;;;;19.98;41.76;102221.69;5113771;28;20458;-26
2022/01/30 01:25:55;;;;;;;0.20;0.20;;;;;;;19.99;41.54;102235.28;5131155;28;20047;-27
2022/01/30 01:28:21;;;;;;;0.20;0.20;;;;;;;19.98;41.87;102241.06;5129559;28;20082;-26
2022/01/30 01:30:46;;;;;;;0.20;0.20;;;;;;;19.98;41.87;102225.31;5130126;28;20039;-26
2022/01/30 01:33:13;;;;;;;0.20;0.20;;;;;;;19.99;41.65;102226.13;5129795;28;20047;-26
2022/01/30 01:35:39;;;;;;;0.20;0.20;;;;;;;19.98;41.97;102224.47;5131055;28;20218;-26
2022/01/30 01:38:10;;;;;;;0.20;0.20;;;;;;;19.98;41.66;102236.38;5130932;28;20501;-26
2022/01/30 01:40:36;;;;;;;0.20;0.20;;;;;;;19.99;41.83;102238.06;5113168;28;20512;-27
2022/01/30 01:43:02;;;;;;;0.20;0.20;;;;;;;19.98;41.65;102239.13;5104295;28;20098;-26
2022/01/30 01:45:34;;;;;;;0.20;0.20;;;;;;;19.99;41.51;102242.72;5108211;28;20124;-26
2022/01/30 01:48:02;;;;;;;0.20;0.20;;;;;;;19.98;41.59;102238.28;5130684;28;20082;-26
2022/01/30 01:50:45;;;;;;;0.20;0.20;;;;;;;19.99;41.67;102234.44;5129906;28;20090;-26
2022/01/30 01:53:14;;;;;;;0.20;0.20;;;;;;;19.99;41.79;102228.91;5107827;28;20043;-27
2022/01/30 01:55:40;;;;;;;;;;;;;;;19.99;41.83;102220.59;5112318;28;20082;-26
2022/01/30 01:58:06;;;;;;;0.20;0.20;;;;;;;19.98;41.95;102218.94;5130667;27;19962;-26
2022/01/30 02:00:32;;;;;;;0.30;0.30;;;;;;;19.98;41.65;102218.94;5104804;28;21198;-26
2022/01/30 02:02:58;;;;;;;0.20;0.20;;;;;;;20.00;42.00;102219.53;5110215;28;20047;-26
2022/01/30 02:05:26;;;;;;;0.20;0.20;;;;;;;19.99;41.98;102218.69;5110938;28;20156;-26
2022/01/30 02:10:45;;;;;;;0.20;0.20;;;;;;;20.00;41.69;102227.84;5174173;27;20291;-31
2022/01/30 02:25:48;;;;;;;0.20;0.20;;;;;;;20.00;41.81;102242.50;5118967;27;20095;-31
2022/01/30 02:27:55;;;;;;;0.20;0.20;;;;;;;19.99;41.98;102253.78;5125294;27;20054;-30
2022/01/30 02:30:21;;;;;;;0.20;0.20;;;;;;;20.00;41.65;102245.25;5145004;27;20081;-31
2022/01/30 02:32:48;;;;;;;0.20;0.20;;;;;;;20.01;41.97;102246.09;5146753;27;20042;-33
2022/01/30 02:35:13;;;;;;;0.20;0.20;;;;;;;20.01;41.71;102248.84;5146389;27;20417;-30
2022/01/30 02:37:39;;;;;;;0.20;0.20;;;;;;;20.00;41.70;102249.94;5145900;27;20204;-30
2022/01/30 02:40:09;;;;;;;0.20;0.20;;;;;;;20.00;41.95;102263.78;5146855;27;20469;-33
2022/01/30 02:42:39;;;;;;;0.20;0.20;;;;;;;20.00;41.77;102264.63;5146408;27;20047;-31
2022/01/30 02:45:08;;;;;;;0.20;0.20;;;;;;;20.01;41.68;102279.28;5128210;27;20046;-30
2022/01/30 02:50:20;;;;;;;0.20;0.20;;;;;;;20.00;41.89;102277.59;5177515;27;20351;-28
2022/01/30 02:52:55;;;;;;;0.20;0.20;;;;;;;20.01;41.79;102280.09;5157664;27;20070;-27
2022/01/30 02:55:21;;;;;;;0.20;0.20;;;;;;;20.02;41.83;102280.94;5140555;27;20141;-26
2022/01/30 02:57:47;;;;;;;0.20;0.20;;;;;;;20.01;41.99;102284.81;5160015;27;20065;-26
2022/01/30 03:00:13;;;;;;;0.20;0.20;;;;;;;20.02;41.73;102289.22;5146404;27;20046;-27
2022/01/30 03:02:39;;;;;;;0.20;0.20;;;;;;;20.00;42.06;102289.50;5158112;27;20074;-27
2022/01/30 03:05:05;;;;;;;0.20;0.20;;;;;;;20.01;41.91;102288.41;5166295;27;20493;-26
2022/01/30 03:07:30;;;;;;;0.20;0.20;;;;;;;20.02;41.68;102290.06;5167886;27;20046;-26
2022/01/30 03:09:56;;;;;;;0.20;0.20;;;;;;;20.01;41.65;102288.41;5142842;27;20489;-26
2022/01/30 03:12:22;;;;;;;0.20;0.20;;;;;;;20.02;41.64;102289.22;5160211;27;20061;-26
2022/01/30 03:14:47;;;;;;;0.20;0.20;;;;;;;20.01;41.89;102288.41;5166283;27;20034;-26
2022/01/30 03:17:13;;;;;;;0.20;0.20;;;;;;;20.01;41.66;102287.56;5159592;27;20039;-26
2022/01/30 03:19:39;;;;;;;0.20;0.20;;;;;;;20.01;41.80;102293.94;5161016;27;20463;-26
2022/01/30 03:22:05;;;;;;;0.20;0.20;;;;;;;20.00;41.71;102285.91;5144294;27;20047;-26
2022/01/30 03:24:35;;;;;;;0.20;0.20;;;;;;;20.01;41.69;102293.09;5164904;27;20055;-26
2022/01/30 03:27:01;;;;;;;0.20;0.20;;;;;;;20.00;41.71;102289.50;5162259;27;20078;-26
2022/01/30 03:29:26;;;;;;;0.20;0.20;;;;;;;20.01;42.01;102302.22;5162616;27;20046;-26
2022/01/30 03:31:52;;;;;;;0.20;0.20;;;;;;;19.99;41.81;102290.59;5163478;27;20039;-26
2022/01/30 03:34:18;;;;;;;0.20;0.20;;;;;;;20.00;41.93;102289.50;5163963;27;20035;-26
2022/01/30 03:36:43;;;;;;;0.20;0.20;;;;;;;20.01;41.72;102287.56;5164047;27;20679;-26
2022/01/30 03:39:09;;;;;;;0.20;0.20;;;;;;;20.01;41.69;102280.09;5162452;27;20046;-26
2022/01/30 03:41:35;;;;;;;0.20;0.20;;;;;;;20.01;41.81;102280.09;5162709;27;20042;-26
2022/01/30 03:44:00;;;;;;;0.20;0.20;;;;;;;20.01;41.75;102288.41;5163298;27;20043;-26
2022/01/30 03:46:27;;;;;;;0.20;0.20;;;;;;;20.02;41.71;102280.94;5165547;27;20046;-26
2022/01/30 03:49:12;;;;;;;0.20;0.20;;;;;;;20.01;41.90;102284.81;5145746;27;20035;-26
2022/01/30 03:51:38;;;;;;;0.20;0.20;;;;;;;20.02;41.94;102295.59;5161614;27;20039;-26
2022/01/30 03:54:04;;;;;;;0.20;0.20;;;;;;;20.02;41.80;102297.53;5162570;27;20443;-26
2022/01/30 03:56:29;;;;;;;0.20;0.20;;;;;;;20.03;41.63;102304.72;5164944;27;20065;-26
2022/01/30 03:58:55;;;;;;;0.20;0.20;;;;;;;20.02;41.73;102298.38;5160206;27;20046;-26
2022/01/30 04:01:21;;;;;;;0.20;0.20;;;;;;;20.01;42.05;102302.22;5148130;27;20431;-26
2022/01/30 04:03:47;;;;;;;0.20;0.20;;;;;;;20.02;41.94;102309.44;5145532;27;20038;-27
2022/01/30 04:06:12;;;;;;;0.20;0.20;;;;;;;20.03;41.65;102308.34;5151516;27;20102;-26
2022/01/30 04:08:39;;;;;;;0.20;0.20;;;;;;;20.02;41.62;102314.97;5150386;27;20504;-26
2022/01/30 04:11:05;;;;;;;0.20;0.20;;;;;;;20.03;41.97;102311.13;5148698;27;20050;-27
2022/01/30 04:13:31;;;;;;;0.20;0.20;;;;;;;20.02;41.70;102309.44;5146863;27;20039;-26
2022/01/30 04:15:57;;;;;;;0.20;0.20;;;;;;;20.03;42.03;102315.78;5145530;27;20415;-27
2022/01/30 04:18:22;;;;;;;0.20;0.20;;;;;;;20.02;41.94;102317.72;5126359;28;20074;-26
2022/01/30 04:20:50;;;;;;;0.20;0.20;;;;;;;20.03;41.92;102315.78;5125458;28;20085;-26
2022/01/30 04:23:15;;;;;;;0.20;0.20;;;;;;;20.02;41.68;102314.97;5123936;28;20093;-26
2022/01/30 04:25:41;;;;;;;0.20;0.20;;;;;;;20.03;41.97;102319.41;5129685;28;20047;-26
2022/01/30 04:28:07;;;;;;;0.20;0.20;;;;;;;20.02;41.80;102314.13;5127072;28;20047;-26
2022/01/30 04:30:39;;;;;;;0.20;0.20;;;;;;;20.03;41.53;102318.56;5126496;27;20051;-26
2022/01/30 04:33:05;;;;;;;0.20;0.20;;;;;;;20.02;41.73;102320.50;5109313;28;20122;-26
2022/01/30 04:35:30;;;;;;;0.20;0.20;;;;;;;20.03;42.00;102318.56;5128102;28;20035;-26
2022/01/30 04:38:16;;;;;;;0.20;0.20;;;;;;;20.03;41.79;102327.72;5128274;28;20082;-26
2022/01/30 04:41:05;;;;;;;0.20;0.20;;;;;;;20.02;41.72;102317.72;5114038;28;20070;-26
2022/01/30 04:55:29;;;;;;;0.20;0.20;;;;;;;20.03;41.93;102346.22;5108132;28;20082;-27
2022/01/30 04:57:41;;;;;;;0.20;0.20;;;;;;;20.02;41.91;102342.59;5114124;28;20100;-26
2022/01/30 05:00:52;;;;;;;0.20;0.20;;;;;;;20.04;41.74;102340.44;5115028;28;20059;-27
2022/01/30 05:06:04;;;;;;;0.20;0.20;;;;;;;20.04;41.92;102334.09;5178590;27;20529;-26
2022/01/30 05:08:14;;;;;;;0.20;0.20;;;;;;;20.03;41.99;102337.91;5137488;27;20042;-26
2022/01/30 05:10:40;;;;;;;0.20;0.20;;;;;;;20.04;41.89;102345.97;5168225;27;20440;-26
2022/01/30 05:13:10;;;;;;;0.20;0.20;;;;;;;20.04;42.00;102345.97;5167707;27;20049;-26
2022/01/30 05:15:36;;;;;;;0.20;0.20;;;;;;;20.03;42.07;102357.28;5168998;27;20069;-26
2022/01/30 05:18:02;;;;;;;0.20;0.20;;;;;;;20.04;41.76;102357.03;5167726;27;20034;-26
2022/01/30 05:20:29;;;;;;;0.20;0.20;;;;;;;20.03;41.89;102360.91;5167495;27;20127;-26
2022/01/30 05:22:56;;;;;;;0.20;0.20;;;;;;;20.04;41.87;102362.56;5164481;27;20076;-27
2022/01/30 05:25:22;;;;;;;0.20;0.20;;;;;;;20.04;42.07;102368.09;5167390;27;20476;-26
2022/01/30 05:27:48;;;;;;;0.20;0.20;;;;;;;20.04;41.82;102378.31;5160426;27;20087;-26
2022/01/30 05:30:14;;;;;;;0.20;0.20;;;;;;;20.04;41.78;102373.63;5161786;27;20386;-27
2022/01/30 05:32:41;;;;;;;0.20;0.20;;;;;;;20.05;41.99;102374.47;5167526;27;20045;-26
2022/01/30 05:35:07;;;;;;;0.20;0.20;;;;;;;20.05;41.83;102368.94;5166477;27;20483;-26
2022/01/30 05:37:37;;;;;;;0.20;0.20;;;;;;;20.04;41.98;102373.63;5167895;27;20050;-26
2022/01/30 05:40:05;;;;;;;0.10;0.10;;;;;;;20.04;41.87;102373.63;5166561;27;20529;-26
2022/01/30 05:42:30;;;;;;;0.20;0.20;;;;;;;20.05;41.87;102377.22;5166905;27;20046;-27
2022/01/30 05:45:09;;;;;;;0.20;0.20;;;;;;;20.04;41.69;102370.88;5166981;27;20133;-26
2022/01/30 05:47:43;;;;;;;0.20;0.20;;;;;;;20.04;42.00;102373.63;5167199;27;20038;-27
2022/01/30 05:50:09;;;;;;;0.20;0.20;;;;;;;20.05;41.75;102368.94;5148922;27;20086;-26
2022/01/30 05:52:35;;;;;;;0.20;0.20;;;;;;;20.04;41.92;102370.03;5164032;27;20042;-26
2022/01/30 05:55:00;;;;;;;0.20;0.20;;;;;;;20.05;41.64;102375.31;5166659;27;20080;-26
2022/01/30 05:57:27;;;;;;;0.20;0.20;;;;;;;20.05;41.81;102378.06;5167346;27;20046;-27
2022/01/30 05:59:52;;;;;;;0.20;0.20;;;;;;;20.04;41.67;102381.94;5167144;27;20073;-26
2022/01/30 06:02:18;;;;;;;0.20;0.20;;;;;;;20.05;41.94;102386.38;5167961;27;20281;-26
2022/01/30 06:04:44;;;;;;;0.20;0.20;;;;;;;20.05;41.74;102388.28;5148115;27;20457;-26
2022/01/30 06:07:11;;;;;;;0.20;0.20;;;;;;;20.05;41.94;102394.66;5166498;27;20054;-27
2022/01/30 06:09:37;;;;;;;0.20;0.20;;;;;;;20.06;41.73;102398.25;5166658;27;20154;-27
2022/01/30 06:12:04;;;;;;;0.20;0.20;;;;;;;20.05;41.73;102394.66;5166729;27;20157;-26
2022/01/30 06:14:31;;;;;;;0.20;0.20;;;;;;;20.05;41.68;102394.66;5166729;27;20054;-26
2022/01/30 06:16:56;;;;;;;0.20;0.20;;;;;;;20.05;42.04;102399.34;5152956;27;20066;-26
2022/01/30 06:19:22;;;;;;;0.20;0.20;;;;;;;20.05;41.89;102402.97;5125742;27;20095;-26
2022/01/30 06:21:49;;;;;;;0.20;0.20;;;;;;;20.06;42.07;102414.84;5138961;27;20107;-26
2022/01/30 06:24:15;;;;;;;0.20;0.20;;;;;;;20.06;41.91;102423.16;5131910;28;20046;-26
2022/01/30 06:26:40;;;;;;;0.20;0.20;;;;;;;20.06;41.68;102425.91;5114167;28;20043;-27
2022/01/30 06:29:06;;;;;;;0.20;0.20;;;;;;;20.07;41.70;102429.50;5136977;27;20055;-26
2022/01/30 06:31:32;;;;;;;0.20;0.20;;;;;;;20.07;41.90;102429.50;5139264;27;20099;-26
2022/01/30 06:33:58;;;;;;;0.20;0.20;;;;;;;20.07;41.86;102433.13;5122075;27;20474;-26
2022/01/30 06:36:23;;;;;;;0.20;0.20;;;;;;;20.05;41.73;102433.38;5118040;27;20046;-26
2022/01/30 06:38:51;;;;;;;0.20;0.20;;;;;;;20.06;41.88;102439.75;5141705;27;20051;-26
2022/01/30 06:41:17;;;;;;;0.20;0.20;;;;;;;20.07;42.16;102446.09;5115902;27;20039;-26
2022/01/30 06:43:43;;;;;;;0.20;0.20;;;;;;;20.07;41.98;102440.56;5138805;27;20126;-26
2022/01/30 06:46:11;;;;;;;0.20;0.20;;;;;;;20.06;41.86;102445.28;5117172;28;20040;-26
2022/01/30 06:48:37;;;;;;;0.20;0.20;;;;;;;20.07;41.70;102452.47;5140722;27;21098;-26
2022/01/30 06:51:05;;;;;;;0.20;0.20;;;;;;;20.08;41.75;102448.66;5140078;27;20074;-26
2022/01/30 06:53:31;;;;;;;0.10;0.10;;;;;;;20.07;41.81;102458.00;5118838;27;20132;-27
2022/01/30 06:55:57;;;;;;;0.20;0.20;;;;;;;20.07;42.05;102463.53;5126246;27;20494;-27
2022/01/30 06:58:22;;;;;;;0.20;0.20;;;;;;;20.07;41.89;102466.31;5140004;27;20138;-27
2022/01/30 07:00:48;;;;;;;0.20;0.20;;;;;;;20.07;41.69;102466.31;5139979;27;20050;-26
2022/01/30 07:03:14;;;;;;;0.20;0.20;;;;;;;20.07;41.69;102468.22;5146499;27;20047;-26
2022/01/30 07:05:40;;;;;;;0.20;0.20;;;;;;;20.07;41.76;102463.53;5140062;27;20038;-26
2022/01/30 07:08:05;;;;;;;0.20;0.20;;;;;;;20.07;41.72;102466.31;5136940;27;20480;-26
2022/01/30 07:10:31;;;;;;;0.20;0.20;;;;;;;20.09;41.83;102474.38;5143556;27;20054;-26
2022/01/30 07:12:57;;;;;;;0.30;0.30;;;;;;;20.08;41.83;102484.59;5141022;27;20177;-26
2022/01/30 07:15:22;;;;;;;0.20;0.20;;;;;;;20.10;41.92;102484.34;5141761;27;20043;-26
2022/01/30 07:17:48;;;;;;;0.20;0.20;;;;;;;20.08;41.81;102479.06;5139101;27;20035;-27
2022/01/30 07:20:14;;;;;;;0.20;0.20;;;;;;;20.08;41.79;102481.84;5146955;27;20066;-27
2022/01/30 07:22:40;;;;;;;0.20;0.20;;;;;;;20.08;41.66;102486.50;5141186;27;20043;-26
2022/01/30 07:25:07;;;;;;;0.20;0.20;;;;;;;20.08;42.18;102495.66;5139001;27;20039;-26
2022/01/30 07:27:35;;;;;;;0.20;0.20;;;;;;;20.07;41.72;102490.34;5139201;27;20042;-26
2022/01/30 07:30:01;;;;;;;0.20;0.20;;;;;;;20.08;41.74;102495.66;5126425;27;20122;-26
2022/01/30 07:32:26;;;;;;;0.20;0.20;;;;;;;20.08;41.72;102500.31;5138029;27;20043;-26
2022/01/30 07:34:52;;;;;;;0.20;0.20;;;;;;;20.09;41.87;102493.72;5139538;27;20039;-26
2022/01/30 07:37:19;;;;;;;0.20;0.20;;;;;;;20.09;41.79;102493.72;5138482;27;20047;-26
2022/01/30 07:39:44;;;;;;;0.20;0.20;;;;;;;20.08;41.80;102500.31;5142173;27;20074;-26
2022/01/30 07:42:11;;;;;;;0.20;0.20;;;;;;;20.08;41.94;102500.31;5138009;27;20039;-26
2022/01/30 07:44:38;;;;;;;0.20;0.20;;;;;;;20.09;41.75;102507.56;5121125;27;20474;-26
2022/01/30 07:47:04;;;;;;;0.10;0.10;;;;;;;20.09;41.71;102507.56;5140060;27;20491;-26
2022/01/30 07:49:30;;;;;;;0.20;0.20;;;;;;;20.07;41.76;102507.78;5123071;27;20074;-26
2022/01/30 07:51:55;;;;;;;0.20;0.20;;;;;;;20.08;41.74;102517.78;5140289;27;20161;-26
2022/01/30 07:54:21;;;;;;;0.20;0.20;;;;;;;20.09;41.72;102518.63;5144275;27;20492;-27
2022/01/30 07:56:47;;;;;;;0.20;0.20;;;;;;;20.09;42.00;102519.47;5136299;27;20043;-26
2022/01/30 07:59:13;;;;;;;0.20;0.20;;;;;;;20.10;41.67;102509.22;5126875;27;20047;-26
2022/01/30 08:01:38;;;;;;;0.20;0.20;;;;;;;20.08;41.85;102512.25;5120764;27;20054;-26
2022/01/30 08:04:07;;;;;;;0.20;0.20;;;;;;;20.09;41.89;102518.63;5136816;27;20047;-26
2022/01/30 08:06:33;;;;;;;0.20;0.20;;;;;;;20.09;41.70;102521.38;5121291;27;20046;-27
2022/01/30 08:08:59;;;;;;;0.20;0.20;;;;;;;20.09;41.95;102508.41;5139885;27;20070;-27
2022/01/30 08:11:25;;;;;;;0.20;0.20;;;;;;;20.09;41.81;102513.94;5109710;27;20456;-26
2022/01/30 08:13:50;;;;;;;0.20;0.20;;;;;;;20.08;41.79;102523.31;5122610;28;20051;-26
2022/01/30 08:16:18;;;;;;;0.20;0.20;;;;;;;20.08;41.97;102526.09;5138271;27;20047;-27
2022/01/30 08:18:44;;;;;;;0.10;0.10;;;;;;;20.08;41.74;102526.09;5117540;27;20503;-27
2022/01/30 08:21:10;;;;;;;0.20;0.20;;;;;;;20.08;41.83;102527.97;5138523;27;20047;-26
2022/01/30 08:23:35;;;;;;;0.20;0.20;;;;;;;20.09;42.02;102530.53;5139356;27;20043;-26
2022/01/30 08:26:01;;;;;;;0.20;0.20;;;;;;;20.10;42.03;102545.19;5139036;27;20111;-26
2022/01/30 08:28:27;;;;;;;0.20;0.20;;;;;;;20.09;41.72;102544.34;5140528;27;20053;-26
2022/01/30 08:30:53;;;;;;;0.20;0.20;;;;;;;20.10;42.13;102550.72;5141013;27;20543;-26
2022/01/30 08:33:19;;;;;;;0.20;0.20;;;;;;;20.10;42.08;102557.09;5138720;27;20054;-26
2022/01/30 08:35:46;;;;;;;0.20;0.20;;;;;;;20.08;41.91;102553.75;5134474;27;20040;-26
2022/01/30 08:38:15;;;;;;;0.20;0.20;;;;;;;20.08;41.87;102545.44;5118578;27;20071;-26
2022/01/30 08:40:41;;;;;;;0.20;0.20;;;;;;;20.08;41.85;102548.22;5125038;27;20085;-26
2022/01/30 08:43:07;;;;;;;0.20;0.20;;;;;;;20.08;41.95;102545.44;5121376;27;20042;-26
2022/01/30 08:45:33;;;;;;;0.20;0.20;;;;;;;20.09;41.89;102540.75;5134409;27;20062;-26
2022/01/30 08:47:58;;;;;;;0.20;0.20;;;;;;;20.09;41.79;102551.81;5119828;27;20039;-26
2022/01/30 08:50:24;;;;;;;0.20;0.20;;;;;;;20.09;41.91;102544.34;5137771;27;20060;-26
2022/01/30 08:52:51;;;;;;;0.20;0.20;;;;;;;20.10;42.05;102542.41;5136599;27;20047;-26
2022/01/30 08:55:17;;;;;;;0.20;0.20;;;;;;;20.11;41.92;102546.84;5116070;27;20485;-26
2022/01/30 08:57:43;;;;;;;0.20;0.20;;;;;;;20.10;42.04;102540.50;5134895;27;20047;-26
2022/01/30 09:00:12;;;;;;;0.20;0.20;;;;;;;20.10;41.93;102539.66;5118727;27;20050;-26
2022/01/30 09:02:38;;;;;;;;;;;;;;;20.10;41.93;102539.66;5105787;27;20373;-26
2022/01/30 09:05:05;;;;;;;0.20;0.20;;;;;;;20.10;42.00;102540.50;5121782;27;20011;-26
2022/01/30 09:07:31;;;;;;;0.20;0.20;;;;;;;20.10;41.89;102545.19;5138831;27;20492;-26
2022/01/30 09:09:57;;;;;;;0.20;0.20;;;;;;;20.10;41.93;102550.72;5141717;27;20155;-26
2022/01/30 09:12:23;;;;;;;0.20;0.20;;;;;;;20.10;41.96;102547.94;5141723;27;20051;-26
2022/01/30 09:14:49;;;;;;;0.20;0.20;;;;;;;20.09;42.04;102558.19;5138397;27;20079;-26
2022/01/30 09:17:16;;;;;;;0.20;0.20;;;;;;;20.10;41.90;102559.84;5137387;27;20075;-26
2022/01/30 09:19:47;;;;;;;0.20;0.20;;;;;;;20.10;41.75;102568.16;5141780;27;20039;-26
2022/01/30 09:22:15;;;;;;;0.20;0.20;;;;;;;20.10;42.03;102562.63;5123740;27;20222;-26
2022/01/30 09:24:41;;;;;;;0.10;0.10;;;;;;;20.10;41.77;102567.31;5136865;27;20069;-26
2022/01/30 09:27:07;;;;;;;0.20;0.20;;;;;;;20.10;41.86;102562.63;5136409;27;20055;-26
2022/01/30 09:29:34;;;;;;;0.20;0.20;;;;;;;20.10;41.68;102565.38;5134512;27;20147;-26
2022/01/30 09:32:01;;;;;;;0.20;0.20;;;;;;;20.11;42.09;102566.22;5119520;27;20035;-26
2022/01/30 09:34:27;;;;;;;0.20;0.20;;;;;;;20.10;41.63;102568.16;5137950;27;20054;-26
2022/01/30 09:36:53;;;;;;;0.20;0.20;;;;;;;20.11;41.96;102566.22;5108428;27;20052;-26
2022/01/30 09:39:18;;;;;;;0.20;0.20;;;;;;;20.10;41.83;102559.00;5137638;27;20450;-26
2022/01/30 09:41:45;;;;;;;0.20;0.20;;;;;;;20.11;41.85;102568.97;5139807;27;20067;-26
2022/01/30 09:44:11;;;;;;;0.20;0.20;;;;;;;20.13;41.83;102566.81;5118994;27;20043;-28
2022/01/30 09:46:39;;;;;;;0.20;0.20;;;;;;;20.10;41.96;102557.09;5135418;27;20042;-26
2022/01/30 09:49:06;;;;;;;0.20;0.20;;;;;;;20.10;42.08;102553.47;5116359;27;20066;-27
2022/01/30 09:51:33;;;;;;;0.20;0.20;;;;;;;20.11;41.89;102556.00;5138764;27;20485;-26
2022/01/30 09:53:59;;;;;;;0.20;0.20;;;;;;;20.12;41.90;102559.59;5141639;27;20051;-26
2022/01/30 09:56:25;;;;;;;0.20;0.20;;;;;;;20.10;41.91;102551.56;5142646;27;20397;-26
2022/01/30 09:58:51;;;;;;;0.20;0.20;;;;;;;20.11;41.88;102552.38;5141502;27;20046;-26
2022/01/30 10:01:17;;;;;;;0.20;0.20;;;;;;;20.11;42.02;102550.47;5137256;27;20401;-26
2022/01/30 10:03:46;;;;;;;0.20;0.20;;;;;;;20.11;41.79;102558.75;5141218;27;20054;-26
2022/01/30 10:06:17;;;;;;;0.20;0.20;;;;;;;20.11;41.71;102544.94;5144464;27;20039;-26
2022/01/30 10:08:44;;;;;;;0.20;0.20;;;;;;;20.11;41.93;102550.47;5144823;27;20863;-26
2022/01/30 10:14:07;;;;;;;0.20;0.20;;;;;;;20.12;41.81;102548.53;5183121;27;20127;-30
2022/01/30 10:16:35;;;;;;;0.20;0.20;;;;;;;20.11;41.90;102542.16;5131230;27;20034;-30
2022/01/30 10:19:09;;;;;;;0.20;0.20;;;;;;;20.11;41.83;102552.38;5150522;27;20180;-30
2022/01/30 10:21:35;;;;;;;0.20;0.20;;;;;;;20.11;41.91;102560.69;5143291;27;20089;-31
2022/01/30 10:24:18;;;;;;;0.20;0.20;;;;;;;20.12;42.10;102554.94;5141355;27;20039;-30
2022/01/30 10:26:43;;;;;;;0.20;0.20;;;;;;;20.11;41.68;102556.00;5142144;27;20038;-29
2022/01/30 10:29:18;;;;;;;0.20;0.20;;;;;;;20.12;42.12;102556.81;5143369;27;20043;-30
2022/01/30 10:32:04;;;;;;;0.20;0.20;;;;;;;20.12;42.13;102559.59;5145818;27;20545;-29
2022/01/30 10:34:31;;;;;;;0.20;0.20;;;;;;;20.12;41.89;102560.47;5142665;27;20066;-30
2022/01/30 10:37:19;;;;;;;0.20;0.20;;;;;;;20.11;41.84;102561.53;5144516;27;20039;-29
2022/01/30 10:40:16;;;;;;;0.20;0.20;;;;;;;20.12;41.98;102570.66;5126123;27;20099;-29
2022/01/30 10:42:45;;;;;;;0.20;0.20;;;;;;;20.12;41.92;102562.34;5136782;27;20039;-29
2022/01/30 10:45:25;;;;;;;0.20;0.20;;;;;;;20.12;41.69;102559.59;5143195;27;20046;-30
2022/01/30 10:48:11;;;;;;;0.20;0.20;;;;;;;20.13;41.67;102551.06;5123626;27;20035;-30
2022/01/30 10:50:39;;;;;;;0.20;0.20;;;;;;;20.12;41.91;102552.16;5124361;27;20046;-32
2022/01/30 10:53:04;;;;;;;0.20;0.20;;;;;;;20.12;42.01;102556.81;5138099;27;20538;-30
2022/01/30 10:55:33;;;;;;;0.20;0.20;;;;;;;20.12;42.08;102549.41;5108593;27;20038;-30
2022/01/30 10:58:00;;;;;;;0.20;0.20;;;;;;;20.12;42.21;102551.28;5144469;27;20336;-29
2022/01/30 11:00:51;;;;;;;0.20;0.20;;;;;;;20.12;41.91;102557.69;5144978;27;20069;-30
2022/01/30 11:03:38;;;;;;;0.20;0.20;;;;;;;20.13;42.01;102559.38;5119326;27;20038;-30
2022/01/30 11:06:10;;;;;;;0.20;0.20;;;;;;;20.13;41.79;102550.22;5144690;27;20058;-31
2022/01/30 11:08:39;;;;;;;0.20;0.20;;;;;;;20.14;41.73;102551.91;5142461;27;20082;-30
2022/01/30 11:11:17;;;;;;;0.20;0.20;;;;;;;20.13;41.68;102561.28;5143065;27;20077;-32
2022/01/30 11:13:58;;;;;;;0.20;0.20;;;;;;;20.13;41.80;102551.06;5143545;27;20093;-30
2022/01/30 11:16:59;;;;;;;0.20;0.20;;;;;;;20.13;42.04;102553.00;5124922;27;20043;-30
2022/01/30 11:19:12;;;;;;;0.20;0.20;;;;;;;20.12;41.86;102563.22;5126141;27;20043;-30
2022/01/30 11:21:39;;;;;;;0.20;0.20;;;;;;;20.13;42.16;102553.81;5143311;27;20074;-33
2022/01/30 11:24:05;;;;;;;0.20;0.20;;;;;;;20.13;41.88;102551.06;5132182;27;20316;-30
2022/01/30 11:26:32;;;;;;;0.20;0.20;;;;;;;20.13;41.81;102553.81;5127735;28;20111;-34
2022/01/30 11:28:58;;;;;;;0.20;0.20;;;;;;;20.13;41.82;102542.75;5112194;28;20085;-30
2022/01/30 11:31:24;;;;;;;0.20;0.20;;;;;;;20.13;41.85;102542.75;5111626;28;20273;-30
2022/01/30 11:33:52;;;;;;;0.20;0.20;;;;;;;20.14;41.96;102538.06;5126981;28;20376;-30
2022/01/30 11:36:22;;;;;;;0.20;0.20;;;;;;;20.13;41.61;102528.09;5111704;28;20079;-30
2022/01/30 11:38:47;;;;;;;0.20;0.20;;;;;;;20.12;41.67;102538.34;5111270;28;20491;-30
2022/01/30 11:41:16;;;;;;;0.20;0.20;;;;;;;20.13;41.88;102526.16;5131308;28;20035;-31
2022/01/30 11:44:20;;;;;;;0.20;0.20;;;;;;;20.14;41.94;102529.78;5126192;28;20050;-30
2022/01/30 11:49:49;;;;;;;0.20;0.20;;;;;;;20.14;41.83;102518.72;5180757;27;20194;-26
2022/01/30 11:52:16;;;;;;;0.20;0.20;;;;;;;20.14;41.87;102519.53;5142098;27;21287;-26
2022/01/30 11:54:45;;;;;;;0.20;0.20;;;;;;;20.13;41.80;102517.88;5138796;27;20039;-26
2022/01/30 12:00:00;;;;;;;0.20;0.20;;;;;;;20.14;41.88;102527.84;5161235;27;20218;-26
2022/01/30 12:02:30;;;;;;;0.20;0.20;;;;;;;20.14;42.02;102527.00;5161004;27;20038;-26
2022/01/30 12:05:12;;;;;;;0.20;0.20;;;;;;;20.14;41.96;102521.47;5159117;27;20477;-26
2022/01/30 12:07:45;;;;;;;0.20;0.20;;;;;;;20.14;41.83;102518.72;5161124;27;20449;-26
2022/01/30 12:13:06;;;;;;;0.20;0.20;;;;;;;20.14;41.82;102514.00;5174228;27;20644;-26
2022/01/30 12:15:39;;;;;;;0.20;0.20;;;;;;;20.15;42.08;102514.84;5164599;27;20039;-26
2022/01/30 12:18:07;;;;;;;0.20;0.20;;;;;;;20.13;41.83;102506.81;5147141;27;20042;-26
2022/01/30 12:21:04;;;;;;;0.20;0.20;;;;;;;20.13;41.83;102506.81;5151227;27;20107;-26
2022/01/30 12:23:35;;;;;;;0.20;0.20;;;;;;;20.14;41.93;102510.41;5134013;27;20043;-26
2022/01/30 12:26:05;;;;;;;0.20;0.20;;;;;;;20.13;41.84;102517.88;5155187;27;20043;-26